createdAt,value
2023-04-18T00:01:29.059Z,12.94
2023-04-18T00:04:03.119Z,12.60
2023-04-18T00:06:36.003Z,12.67
2023-04-18T00:09:07.610Z,12.64
2023-04-18T00:11:39.402Z,12.60
2023-04-18T00:14:11.975Z,12.65
2023-04-18T00:16:43.836Z,12.70
2023-04-18T00:19:15.545Z,12.58
2023-04-18T00:21:47.141Z,12.31
2023-04-18T00:24:19.345Z,12.24
2023-04-18T00:26:50.935Z,12.68
2023-04-18T00:29:22.503Z,12.53
2023-04-18T00:31:54.022Z,12.54
2023-04-18T00:34:25.572Z,12.69
2023-04-18T00:37:00.257Z,12.85
2023-04-18T00:39:31.763Z,12.82
2023-04-18T00:42:04.147Z,13.02
2023-04-18T00:44:35.629Z,12.88
2023-04-18T00:47:07.199Z,12.63
2023-04-18T00:49:38.817Z,12.68
2023-04-18T00:52:14.297Z,13.01
2023-04-18T00:54:47.317Z,13.37
2023-04-18T00:57:18.924Z,13.18
2023-04-18T00:59:50.856Z,13.31
2023-04-18T01:02:22.947Z,12.67
2023-04-18T01:04:54.594Z,13.08
2023-04-18T01:07:26.876Z,12.93
2023-04-18T01:09:58.720Z,13.74
2023-04-18T01:12:30.566Z,13.65
2023-04-18T01:15:07.189Z,13.82
2023-04-18T01:17:39.623Z,14.15
2023-04-18T01:20:12.292Z,13.91
2023-04-18T01:22:43.895Z,13.45
2023-04-18T01:25:15.588Z,13.96
2023-04-18T01:27:47.435Z,13.72
2023-04-18T01:30:18.926Z,13.89
2023-04-18T01:32:50.567Z,14.01
2023-04-18T01:35:25.334Z,13.85
2023-04-18T01:38:00.594Z,13.97
2023-04-18T01:40:32.298Z,14.15
2023-04-18T01:43:07.054Z,13.83
2023-04-18T01:45:38.722Z,14.18
2023-04-18T01:48:10.314Z,14.35
2023-04-18T01:50:41.901Z,14.38
2023-04-18T01:53:13.514Z,14.05
2023-04-18T01:55:45.117Z,14.08
2023-04-18T01:58:18.557Z,14.33
2023-04-18T02:00:54.607Z,14.44
2023-04-18T02:03:26.319Z,14.01
2023-04-18T02:05:58.195Z,14.51
2023-04-18T02:08:30.826Z,14.60
2023-04-18T02:11:02.424Z,14.67
2023-04-18T02:13:34.063Z,14.11
2023-04-18T02:16:06.356Z,14.19
2023-04-18T02:18:40.104Z,14.37
2023-04-18T02:21:12.072Z,14.63
2023-04-18T02:23:43.574Z,14.50
2023-04-18T02:26:15.242Z,13.97
2023-04-18T02:28:46.865Z,14.71
2023-04-18T02:31:18.401Z,14.58
2023-04-18T02:33:50.054Z,14.81
2023-04-18T02:36:21.697Z,14.20
2023-04-18T02:38:54.174Z,14.60
2023-04-18T02:41:26.004Z,14.77
2023-04-18T02:43:57.580Z,14.42
2023-04-18T02:46:29.485Z,14.39
2023-04-18T02:49:01.150Z,14.62
2023-04-18T02:51:32.762Z,14.29
2023-04-18T02:54:04.274Z,14.68
2023-04-18T02:56:39.967Z,15.04
2023-04-18T02:59:12.078Z,14.82
2023-04-18T03:01:43.670Z,14.69
2023-04-18T03:04:15.866Z,14.51
2023-04-18T03:06:48.384Z,14.37
2023-04-18T03:09:19.887Z,14.40
2023-04-18T03:11:51.495Z,14.47
2023-04-18T03:14:23.070Z,14.55
2023-04-18T03:16:55.589Z,14.07
2023-04-18T03:19:27.299Z,14.14
2023-04-18T03:21:59.130Z,14.50
2023-04-18T03:24:30.890Z,14.22
2023-04-18T03:27:02.461Z,14.32
2023-04-18T03:29:34.148Z,13.62
2023-04-18T03:32:05.944Z,13.90
2023-04-18T03:34:39.646Z,13.91
2023-04-18T03:37:11.305Z,13.89
2023-04-18T03:39:42.997Z,13.80
2023-04-18T03:42:14.540Z,13.57
2023-04-18T03:44:46.237Z,13.72
2023-04-18T03:47:17.840Z,13.87
2023-04-18T03:49:54.169Z,14.18
2023-04-18T03:52:27.008Z,14.17
2023-04-18T03:54:59.755Z,14.39
2023-04-18T03:57:31.236Z,13.89
2023-04-18T04:00:04.703Z,13.79
2023-04-18T04:02:36.541Z,14.38
2023-04-18T04:05:08.328Z,14.15
2023-04-18T04:07:39.962Z,14.68
2023-04-18T04:10:11.506Z,14.21
2023-04-18T04:12:43.111Z,14.11
2023-04-18T04:15:14.779Z,14.30
2023-04-18T04:17:46.492Z,14.47
2023-04-18T04:20:24.047Z,14.30
2023-04-18T04:22:56.837Z,14.36
2023-04-18T04:25:33.208Z,14.31
2023-04-18T04:28:06.699Z,14.27
2023-04-18T04:30:38.250Z,14.41
2023-04-18T04:33:09.864Z,14.93
2023-04-18T04:35:41.757Z,14.60
2023-04-18T04:38:17.230Z,14.76
2023-04-18T04:40:49.616Z,14.21
2023-04-18T04:43:21.602Z,14.61
2023-04-18T04:45:53.652Z,14.71
2023-04-18T04:48:25.523Z,14.88
2023-04-18T04:50:59.333Z,14.56
2023-04-18T04:53:33.261Z,14.51
2023-04-18T04:56:05.010Z,14.71
2023-04-18T04:58:36.899Z,14.28
2023-04-18T05:01:09.268Z,14.50
2023-04-18T05:03:41.009Z,14.74
2023-04-18T05:06:12.945Z,14.43
2023-04-18T05:08:44.491Z,14.46
2023-04-18T05:11:16.837Z,14.77
2023-04-18T05:13:48.365Z,14.42
2023-04-18T05:16:20.108Z,14.52
2023-04-18T05:18:53.756Z,14.33
2023-04-18T05:21:26.132Z,14.85
2023-04-18T05:23:57.652Z,14.99
2023-04-18T05:26:29.210Z,15.04
2023-04-18T05:29:00.825Z,14.32
2023-04-18T05:31:32.465Z,14.43
2023-04-18T05:34:07.029Z,14.61
2023-04-18T05:36:38.571Z,14.71
2023-04-18T05:39:10.137Z,14.56
2023-04-18T05:41:42.374Z,14.57
2023-04-18T05:44:13.890Z,14.68
2023-04-18T05:46:46.387Z,14.85
2023-04-18T05:49:19.323Z,14.73
2023-04-18T05:51:55.086Z,14.67
2023-04-18T05:54:27.373Z,14.56
2023-04-18T05:56:59.643Z,15.11
2023-04-18T05:59:31.219Z,14.72
2023-04-18T06:02:02.917Z,15.11
2023-04-18T06:04:34.542Z,15.05
2023-04-18T06:07:06.328Z,14.87
2023-04-18T06:09:37.838Z,14.84
2023-04-18T06:12:09.530Z,15.11
2023-04-18T06:14:41.109Z,15.23
2023-04-18T06:17:13.305Z,15.68
2023-04-18T06:19:44.974Z,16.01
2023-04-18T06:22:18.618Z,16.17
2023-04-18T06:24:50.195Z,16.28
2023-04-18T06:27:30.693Z,15.85
2023-04-18T06:30:05.015Z,16.11
2023-04-18T06:32:36.568Z,15.89
2023-04-18T06:35:08.520Z,16.04
2023-04-18T06:37:43.938Z,16.08
2023-04-18T06:40:18.386Z,16.60
2023-04-18T06:42:49.951Z,16.62
2023-04-18T06:45:21.757Z,16.35
2023-04-18T06:47:53.333Z,16.46
2023-04-18T06:50:26.159Z,16.86
2023-04-18T06:52:57.677Z,16.24
2023-04-18T06:55:31.749Z,16.07
2023-04-18T06:58:03.294Z,16.45
2023-04-18T07:00:34.810Z,16.75
2023-04-18T07:03:11.337Z,16.22
2023-04-18T07:05:43.232Z,16.28
2023-04-18T07:08:14.821Z,16.34
2023-04-18T07:10:46.388Z,16.39
2023-04-18T07:13:17.959Z,16.29
2023-04-18T07:15:56.594Z,16.43
2023-04-18T07:18:37.553Z,15.71
2023-04-18T07:21:10.048Z,16.22
2023-04-18T07:23:41.682Z,15.39
2023-04-18T07:26:16.036Z,16.32
2023-04-18T07:28:47.542Z,16.38
2023-04-18T07:31:19.528Z,16.11
2023-04-18T07:33:51.934Z,16.08
2023-04-18T07:36:23.853Z,16.60
2023-04-18T07:38:55.446Z,16.73
2023-04-18T07:41:27.207Z,17.24
2023-04-18T07:43:59.064Z,16.84
2023-04-18T07:46:32.438Z,16.65
2023-04-18T07:49:04.627Z,14.84
2023-04-18T07:51:38.747Z,15.24
2023-04-18T07:54:11.214Z,15.47
2023-04-18T07:56:45.014Z,16.86
2023-04-18T07:59:16.752Z,16.90
2023-04-18T08:01:48.515Z,15.88
2023-04-18T08:04:20.208Z,16.40
2023-04-18T08:06:51.876Z,14.95
2023-04-18T08:09:23.436Z,16.22
2023-04-18T08:11:56.673Z,16.46
2023-04-18T08:14:28.192Z,16.96
2023-04-18T08:16:59.786Z,16.49
2023-04-18T08:19:31.329Z,17.14
2023-04-18T08:22:10.616Z,17.06
2023-04-18T08:24:57.272Z,15.31
2023-04-18T08:27:33.817Z,17.04
2023-04-18T08:30:07.064Z,17.83
2023-04-18T08:32:38.860Z,17.60
2023-04-18T08:35:10.444Z,17.55
2023-04-18T08:37:42.035Z,16.40
2023-04-18T08:40:13.789Z,17.15
2023-04-18T08:42:45.542Z,17.42
2023-04-18T08:45:19.190Z,18.08
2023-04-18T08:47:51.321Z,18.12
2023-04-18T08:50:23.136Z,18.41
2023-04-18T08:52:55.327Z,16.77
2023-04-18T08:55:27.302Z,16.91
2023-04-18T08:57:59.679Z,17.29
2023-04-18T09:00:31.178Z,17.42
2023-04-18T09:03:03.739Z,17.24
2023-04-18T09:05:35.614Z,17.41
2023-04-18T09:08:24.234Z,17.97
2023-04-18T09:10:56.169Z,18.37
2023-04-18T09:13:39.901Z,18.43
2023-04-18T09:16:11.821Z,18.04
2023-04-18T09:19:14.419Z,17.78
2023-04-18T09:21:48.775Z,18.61
2023-04-18T09:24:29.309Z,18.71
2023-04-18T09:27:01.285Z,18.41
2023-04-18T09:29:49.349Z,18.00
2023-04-18T09:32:29.446Z,19.17
2023-04-18T09:35:05.476Z,20.07
2023-04-18T09:37:37.088Z,20.84
2023-04-18T09:40:18.587Z,20.48
2023-04-18T09:42:54.443Z,21.04
2023-04-18T09:45:26.420Z,19.80
2023-04-18T09:47:57.999Z,20.55
2023-04-18T09:50:29.771Z,19.57
2023-04-18T09:53:01.896Z,19.20
2023-04-18T09:55:34.916Z,20.08
2023-04-18T09:58:08.655Z,19.12
2023-04-18T10:00:40.657Z,20.07
2023-04-18T10:03:14.851Z,18.97
2023-04-18T10:05:48.205Z,19.71
2023-04-18T10:08:20.665Z,19.18
2023-04-18T10:10:52.191Z,19.86
2023-04-18T10:13:25.157Z,20.44
2023-04-18T10:15:57.044Z,20.13
2023-04-18T10:18:28.563Z,19.61
2023-04-18T10:21:05.866Z,20.91
2023-04-18T10:23:39.039Z,21.16
2023-04-18T10:26:11.375Z,20.83
2023-04-18T10:28:58.781Z,20.96
2023-04-18T10:31:39.038Z,20.58
2023-04-18T10:34:17.459Z,20.91
2023-04-18T10:37:05.398Z,20.84
2023-04-18T10:39:57.362Z,21.53
2023-04-18T10:42:47.229Z,22.16
2023-04-18T10:45:26.008Z,21.56
2023-04-18T10:48:25.497Z,22.29
2023-04-18T10:51:20.889Z,23.03
2023-04-18T10:53:57.562Z,23.98
2023-04-18T10:56:29.294Z,22.77
2023-04-18T10:59:03.393Z,24.31
2023-04-18T11:01:38.068Z,25.77
2023-04-18T11:04:14.270Z,23.81
2023-04-18T11:06:58.480Z,23.72
2023-04-18T11:09:30.102Z,24.62
2023-04-18T11:12:11.260Z,23.51
2023-04-18T11:14:50.071Z,22.92
2023-04-18T11:17:35.645Z,24.57
2023-04-18T11:20:13.613Z,24.50
2023-04-18T11:22:53.601Z,25.47
2023-04-18T11:25:32.265Z,24.93
2023-04-18T11:28:04.875Z,23.35
2023-04-18T11:30:38.885Z,23.37
2023-04-18T11:33:12.485Z,22.98
2023-04-18T11:35:46.381Z,22.33
2023-04-18T11:38:18.530Z,24.76
2023-04-18T11:40:51.135Z,24.66
2023-04-18T11:43:25.329Z,23.88
2023-04-18T11:46:00.612Z,24.37
2023-04-18T11:48:43.274Z,24.26
2023-04-18T11:51:44.680Z,25.18
2023-04-18T11:54:43.056Z,26.56
2023-04-18T11:57:27.336Z,26.31
2023-04-18T12:00:01.149Z,26.57
2023-04-18T12:02:51.363Z,25.98
2023-04-18T12:05:31.976Z,25.99
2023-04-18T12:08:17.295Z,22.87
2023-04-18T12:10:51.690Z,23.03
2023-04-18T12:13:32.920Z,23.56
2023-04-18T12:16:05.055Z,25.11
2023-04-18T12:18:36.607Z,26.22
2023-04-18T12:21:08.677Z,24.68
2023-04-18T12:23:42.350Z,25.45
2023-04-18T12:26:21.044Z,24.46
2023-04-18T12:28:55.487Z,25.10
2023-04-18T12:31:28.654Z,24.26
2023-04-18T12:34:00.533Z,24.72
2023-04-18T12:36:32.076Z,24.27
2023-04-18T12:39:04.011Z,23.86
2023-04-18T12:41:35.667Z,22.74
2023-04-18T12:44:07.389Z,24.72
2023-04-18T12:46:38.978Z,25.23
2023-04-18T12:49:10.502Z,26.00
2023-04-18T12:51:43.525Z,26.05
2023-04-18T12:54:15.359Z,26.92
2023-04-18T12:56:47.099Z,26.54
2023-04-18T12:59:18.615Z,26.54
2023-04-18T13:01:50.249Z,25.29
2023-04-18T13:04:22.021Z,26.06
2023-04-18T13:06:53.870Z,26.35
2023-04-18T13:09:26.890Z,27.32
2023-04-18T13:11:58.805Z,28.76
2023-04-18T13:14:30.493Z,27.87
2023-04-18T13:17:02.070Z,27.26
2023-04-18T13:19:33.784Z,26.93
2023-04-18T13:22:05.393Z,26.43
2023-04-18T13:24:37.196Z,26.72
2023-04-18T13:27:10.530Z,26.48
2023-04-18T13:29:43.484Z,26.26
2023-04-18T13:32:15.147Z,25.11
2023-04-18T13:34:47.993Z,23.24
2023-04-18T13:37:19.585Z,24.25
2023-04-18T13:39:51.368Z,23.65
2023-04-18T13:42:22.964Z,22.35
2023-04-18T13:44:54.554Z,22.13
2023-04-18T13:47:26.473Z,22.51
2023-04-18T13:49:58.115Z,22.22
2023-04-18T13:52:29.671Z,22.69
2023-04-18T13:55:01.343Z,22.10
2023-04-18T13:57:33.522Z,22.21
2023-04-18T14:00:06.612Z,21.27
2023-04-18T14:02:38.369Z,22.49
2023-04-18T14:05:10.646Z,21.89
2023-04-18T14:07:42.343Z,22.29
2023-04-18T14:10:14.092Z,22.19
2023-04-18T14:12:45.655Z,21.73
2023-04-18T14:15:17.735Z,22.03
2023-04-18T14:17:49.396Z,22.22
2023-04-18T14:20:20.904Z,22.60
2023-04-18T14:22:53.287Z,23.62
2023-04-18T14:25:24.970Z,25.20
2023-04-18T14:28:09.535Z,24.32
2023-04-18T14:30:41.460Z,23.61
2023-04-18T14:33:12.969Z,23.60
2023-04-18T14:35:47.254Z,22.13
2023-04-18T14:38:19.334Z,22.42
2023-04-18T14:40:50.816Z,22.16
2023-04-18T14:43:25.815Z,23.61
2023-04-18T14:45:59.021Z,23.26
2023-04-18T14:48:34.227Z,22.82
2023-04-18T14:51:06.079Z,24.44
2023-04-18T14:53:37.719Z,24.93
2023-04-18T14:56:09.350Z,24.55
2023-04-18T14:58:40.914Z,24.38
2023-04-18T15:01:13.286Z,23.65
2023-04-18T15:03:45.577Z,23.02
2023-04-18T15:06:17.312Z,24.79
2023-04-18T15:08:48.879Z,25.17
2023-04-18T15:11:20.425Z,24.17
2023-04-18T15:13:51.937Z,24.57
2023-04-18T15:16:23.618Z,24.13
2023-04-18T15:18:55.213Z,23.16
2023-04-18T15:21:27.213Z,24.08
2023-04-18T15:24:00.416Z,22.35
2023-04-18T15:26:33.236Z,20.97
2023-04-18T15:29:07.323Z,20.52
2023-04-18T15:31:39.297Z,20.33
2023-04-18T15:34:12.012Z,20.98
2023-04-18T15:36:43.701Z,21.13
2023-04-18T15:39:17.975Z,21.24
2023-04-18T15:41:59.164Z,22.01
2023-04-18T15:44:31.034Z,22.08
2023-04-18T15:47:02.674Z,21.69
2023-04-18T15:49:36.311Z,22.56
2023-04-18T15:52:08.395Z,22.72
2023-04-18T15:54:42.887Z,23.16
2023-04-18T15:57:14.407Z,23.35
2023-04-18T15:59:46.099Z,22.71
2023-04-18T16:02:17.734Z,23.07
2023-04-18T16:04:49.452Z,22.15
2023-04-18T16:07:21.078Z,21.74
2023-04-18T16:09:52.555Z,21.57
2023-04-18T16:12:24.063Z,21.10
2023-04-18T16:14:55.554Z,21.13
2023-04-18T16:17:29.233Z,21.19
2023-04-18T16:20:01.784Z,21.09
2023-04-18T16:22:33.342Z,20.43
2023-04-18T16:25:06.141Z,20.07
2023-04-18T16:27:37.675Z,20.24
2023-04-18T16:30:10.280Z,19.50
2023-04-18T16:32:41.919Z,18.82
2023-04-18T16:35:16.666Z,18.97
2023-04-18T16:37:48.549Z,19.95
2023-04-18T16:40:20.246Z,19.37
2023-04-18T16:42:52.714Z,18.99
2023-04-18T16:45:24.924Z,19.47
2023-04-18T16:47:57.380Z,18.82
2023-04-18T16:50:28.988Z,19.66
2023-04-18T16:53:01.578Z,19.29
2023-04-18T16:55:33.136Z,19.09
2023-04-18T16:58:04.750Z,18.83
2023-04-18T17:00:38.371Z,18.57
2023-04-18T17:03:13.428Z,18.57
2023-04-18T17:05:45.525Z,18.53
2023-04-18T17:08:17.201Z,18.83
2023-04-18T17:10:52.676Z,18.89
2023-04-18T17:13:26.777Z,18.63
2023-04-18T17:15:58.701Z,18.58
2023-04-18T17:18:30.362Z,18.07
2023-04-18T17:21:03.366Z,18.26
2023-04-18T17:23:34.851Z,17.99
2023-04-18T17:26:06.450Z,17.89
2023-04-18T17:28:37.936Z,17.22
2023-04-18T17:31:09.449Z,17.38
2023-04-18T17:33:41.948Z,17.52
2023-04-18T17:36:13.459Z,17.20
2023-04-18T17:38:48.914Z,17.09
2023-04-18T17:41:21.576Z,16.93
2023-04-18T17:43:53.274Z,16.92
2023-04-18T17:46:27.061Z,16.77
2023-04-18T17:48:58.778Z,16.60
2023-04-18T17:51:30.949Z,16.78
2023-04-18T17:54:02.957Z,16.78
2023-04-18T17:56:34.536Z,16.44
2023-04-18T17:59:07.407Z,16.24
2023-04-18T18:01:39.920Z,16.47
2023-04-18T18:04:12.400Z,16.61
2023-04-18T18:06:54.532Z,16.66
2023-04-18T18:09:26.070Z,16.27
2023-04-18T18:11:58.643Z,16.34
2023-04-18T18:14:30.196Z,16.27
2023-04-18T18:17:01.774Z,16.14
2023-04-18T18:19:36.384Z,16.19
2023-04-18T18:22:08.595Z,16.11
2023-04-18T18:24:40.147Z,15.97
2023-04-18T18:27:11.705Z,16.38
2023-04-18T18:29:43.277Z,15.86
2023-04-18T18:32:14.883Z,16.01
2023-04-18T18:34:46.429Z,16.33
2023-04-18T18:37:18.147Z,15.91
2023-04-18T18:39:49.990Z,15.91
2023-04-18T18:42:21.820Z,15.89
2023-04-18T18:44:53.378Z,15.93
2023-04-18T18:47:24.951Z,15.43
2023-04-18T18:49:58.032Z,15.44
2023-04-18T18:52:30.804Z,15.67
2023-04-18T18:55:03.242Z,15.16
2023-04-18T18:57:35.296Z,15.62
2023-04-18T19:00:13.371Z,15.74
2023-04-18T19:02:45.072Z,15.63
2023-04-18T19:05:17.995Z,15.49
2023-04-18T19:07:51.379Z,15.46
2023-04-18T19:10:22.965Z,14.93
2023-04-18T19:12:55.052Z,15.55
2023-04-18T19:15:26.784Z,15.44
2023-04-18T19:17:58.557Z,15.31
2023-04-18T19:20:30.133Z,15.34
2023-04-18T19:23:01.795Z,15.16
2023-04-18T19:25:33.656Z,15.08
2023-04-18T19:28:05.811Z,15.23
2023-04-18T19:30:37.314Z,15.00
2023-04-18T19:33:09.089Z,14.83
2023-04-18T19:35:40.895Z,14.59
2023-04-18T19:38:12.439Z,15.00
2023-04-18T19:40:44.120Z,15.13
2023-04-18T19:43:15.778Z,14.73
2023-04-18T19:45:47.375Z,14.59
2023-04-18T19:48:18.946Z,14.76
2023-04-18T19:50:51.103Z,14.65
2023-04-18T19:53:23.509Z,14.74
2023-04-18T19:55:56.879Z,14.63
2023-04-18T19:58:46.969Z,14.22
2023-04-18T20:01:20.814Z,14.47
2023-04-18T20:03:54.360Z,14.18
2023-04-18T20:06:26.797Z,14.36
2023-04-18T20:08:58.387Z,14.39
2023-04-18T20:11:29.949Z,14.35
2023-04-18T20:14:01.689Z,14.48
2023-04-18T20:16:33.464Z,14.24
2023-04-18T20:19:05.705Z,14.20
2023-04-18T20:21:37.297Z,14.14
2023-04-18T20:24:11.896Z,13.92
2023-04-18T20:26:43.478Z,13.98
2023-04-18T20:29:15.206Z,13.86
2023-04-18T20:31:46.931Z,14.17
2023-04-18T20:34:18.973Z,13.63
2023-04-18T20:36:54.621Z,13.68
2023-04-18T20:39:27.005Z,13.55
2023-04-18T20:41:59.818Z,13.76
2023-04-18T20:44:34.276Z,13.55
2023-04-18T20:47:06.349Z,13.82
2023-04-18T20:49:40.643Z,13.70
2023-04-18T20:52:14.297Z,13.66
2023-04-18T20:54:48.643Z,13.51
2023-04-18T20:57:20.178Z,13.95
2023-04-18T20:59:51.750Z,13.82
2023-04-18T21:02:23.362Z,13.58
2023-04-18T21:04:54.981Z,13.42
2023-04-18T21:07:26.598Z,13.47
2023-04-18T21:10:00.884Z,13.35
2023-04-18T21:12:32.482Z,14.10
2023-04-18T21:15:05.521Z,13.55
2023-04-18T21:17:43.403Z,13.61
2023-04-18T21:20:17.973Z,13.83
2023-04-18T21:22:50.668Z,13.71
2023-04-18T21:25:23.699Z,13.58
2023-04-18T21:27:56.896Z,13.62
2023-04-18T21:30:28.926Z,13.79
2023-04-18T21:33:00.807Z,13.48
2023-04-18T21:35:34.231Z,13.70
2023-04-18T21:38:07.067Z,12.93
2023-04-18T21:40:40.726Z,13.14
2023-04-18T21:43:12.570Z,13.47
2023-04-18T21:45:46.115Z,13.30
2023-04-18T21:48:17.640Z,13.59
2023-04-18T21:50:55.665Z,13.56
2023-04-18T21:53:27.171Z,13.35
2023-04-18T21:55:58.996Z,12.84
2023-04-18T21:58:33.165Z,13.20
2023-04-18T22:01:04.848Z,13.01
2023-04-18T22:03:36.918Z,13.14
2023-04-18T22:06:08.716Z,13.43
2023-04-18T22:08:41.968Z,13.32
2023-04-18T22:11:15.787Z,13.03
2023-04-18T22:13:47.433Z,13.39
2023-04-18T22:16:18.981Z,13.70
2023-04-18T22:18:50.585Z,13.75
2023-04-18T22:21:24.328Z,13.30
2023-04-18T22:23:55.824Z,13.67
2023-04-18T22:26:27.392Z,13.34
2023-04-18T22:28:59.011Z,13.56
2023-04-18T22:31:30.789Z,12.96
2023-04-18T22:34:02.418Z,13.36
2023-04-18T22:36:33.872Z,13.32
2023-04-18T22:39:06.174Z,13.15
2023-04-18T22:41:37.685Z,12.85
2023-04-18T22:44:09.238Z,13.34
2023-04-18T22:46:40.779Z,13.23
2023-04-18T22:49:12.392Z,13.50
2023-04-18T22:51:43.981Z,13.16
2023-04-18T22:54:15.854Z,12.88
2023-04-18T22:56:49.974Z,13.22
2023-04-18T22:59:21.779Z,13.53
2023-04-18T23:01:53.523Z,13.24
2023-04-18T23:04:26.308Z,13.10
2023-04-18T23:06:57.957Z,13.29
2023-04-18T23:09:31.091Z,13.27
2023-04-18T23:12:02.803Z,13.25
2023-04-18T23:14:37.754Z,13.35
2023-04-18T23:17:09.210Z,13.00
2023-04-18T23:19:40.859Z,13.13
2023-04-18T23:22:12.362Z,13.04
2023-04-18T23:24:43.843Z,13.43
2023-04-18T23:27:15.548Z,13.43
2023-04-18T23:29:48.737Z,13.31
2023-04-18T23:32:20.321Z,13.36
2023-04-18T23:34:52.074Z,13.38
2023-04-18T23:37:23.617Z,13.26
2023-04-18T23:39:55.299Z,13.22
2023-04-18T23:42:27.297Z,13.44
2023-04-18T23:44:58.970Z,13.49
2023-04-18T23:47:33.554Z,13.34
2023-04-18T23:50:06.192Z,13.51
2023-04-18T23:52:38.526Z,13.49
2023-04-18T23:55:10.501Z,13.04
2023-04-18T23:57:42.026Z,13.20
